createdAt,value
2018-09-19T00:00:29.379Z,20.11
2018-09-19T00:01:29.363Z,20.11
2018-09-19T00:02:29.347Z,19.99
2018-09-19T00:03:29.345Z,20.08
2018-09-19T00:04:29.373Z,19.98
2018-09-19T00:05:29.337Z,19.96
2018-09-19T00:06:29.335Z,19.95
2018-09-19T00:07:29.301Z,19.96
2018-09-19T00:08:29.321Z,19.98
2018-09-19T00:09:29.285Z,20.02
2018-09-19T00:10:29.285Z,19.95
2018-09-19T00:11:29.252Z,19.94
2018-09-19T00:12:29.244Z,19.94
2018-09-19T00:13:29.231Z,19.86
2018-09-19T00:14:29.231Z,19.96
2018-09-19T00:15:29.249Z,19.87
2018-09-19T00:16:29.213Z,19.87
2018-09-19T00:17:29.197Z,19.86
2018-09-19T00:18:29.202Z,19.81
2018-09-19T00:19:29.198Z,19.86
2018-09-19T00:20:29.164Z,19.80
2018-09-19T00:21:29.161Z,19.84
2018-09-19T00:22:29.149Z,19.77
2018-09-19T00:23:29.137Z,19.71
2018-09-19T00:24:29.155Z,19.78
2018-09-19T00:25:29.107Z,19.71
2018-09-19T00:26:29.098Z,19.66
2018-09-19T00:27:29.098Z,19.68
2018-09-19T00:28:29.106Z,19.59
2018-09-19T00:29:29.061Z,19.69
2018-09-19T00:30:29.059Z,19.58
2018-09-19T00:31:29.042Z,19.55
2018-09-19T00:32:29.056Z,19.55
2018-09-19T00:33:29.017Z,19.55
2018-09-19T00:34:29.043Z,19.58
2018-09-19T00:35:29.044Z,19.54
2018-09-19T00:36:29.000Z,19.51
2018-09-19T00:37:28.980Z,19.48
2018-09-19T00:38:29.026Z,19.48
2018-09-19T00:39:28.963Z,19.44
2018-09-19T00:40:28.967Z,19.40
2018-09-19T00:41:28.941Z,19.40
2018-09-19T00:42:28.950Z,19.37
2018-09-19T00:43:28.908Z,19.47
2018-09-19T00:44:28.912Z,19.37
2018-09-19T00:45:28.899Z,19.29
2018-09-19T00:46:28.891Z,19.40
2018-09-19T00:47:28.877Z,19.33
2018-09-19T00:48:28.880Z,19.29
2018-09-19T00:49:28.854Z,19.33
2018-09-19T00:50:28.848Z,19.33
2018-09-19T00:51:28.861Z,19.23
2018-09-19T00:52:28.855Z,19.29
2018-09-19T00:53:28.807Z,19.13
2018-09-19T00:54:28.815Z,19.16
2018-09-19T00:55:28.817Z,19.18
2018-09-19T00:56:28.777Z,19.25
2018-09-19T00:57:28.782Z,19.21
2018-09-19T00:58:28.771Z,19.23
2018-09-19T00:59:28.764Z,19.21
2018-09-19T01:00:28.759Z,19.14
2018-09-19T01:01:28.767Z,19.18
2018-09-19T01:02:28.778Z,19.19
2018-09-19T01:03:28.697Z,19.23
2018-09-19T01:04:28.693Z,19.13
2018-09-19T01:05:28.720Z,19.18
2018-09-19T01:06:28.671Z,19.11
2018-09-19T01:07:28.660Z,19.11
2018-09-19T01:08:28.670Z,19.04
2018-09-19T01:09:28.637Z,19.07
2018-09-19T01:10:28.632Z,19.13
2018-09-19T01:11:28.619Z,19.10
2018-09-19T01:12:28.604Z,18.98
2018-09-19T01:13:28.600Z,18.99
2018-09-19T01:14:28.583Z,19.04
2018-09-19T01:15:28.682Z,19.02
2018-09-19T01:16:28.599Z,18.98
2018-09-19T01:17:28.549Z,19.00
2018-09-19T01:18:28.554Z,19.02
2018-09-19T01:19:28.535Z,18.95
2018-09-19T01:20:28.525Z,18.91
2018-09-19T01:21:28.518Z,18.99
2018-09-19T01:22:28.499Z,18.94
2018-09-19T01:23:28.477Z,18.95
2018-09-19T01:24:28.473Z,18.94
2018-09-19T01:25:28.466Z,18.85
2018-09-19T01:26:28.468Z,18.91
2018-09-19T01:27:28.444Z,18.88
2018-09-19T01:28:28.461Z,18.87
2018-09-19T01:29:28.416Z,18.85
2018-09-19T01:30:28.409Z,18.88
2018-09-19T01:31:28.403Z,18.81
2018-09-19T01:32:28.410Z,18.81
2018-09-19T01:33:28.390Z,18.76
2018-09-19T01:34:28.392Z,18.82
2018-09-19T01:35:28.346Z,18.80
2018-09-19T01:36:28.339Z,18.80
2018-09-19T01:37:28.333Z,18.75
2018-09-19T01:38:28.356Z,18.73
2018-09-19T01:39:28.334Z,18.73
2018-09-19T01:40:28.299Z,18.70
2018-09-19T01:41:28.298Z,18.78
2018-09-19T01:42:28.290Z,18.75
2018-09-19T01:43:28.262Z,18.73
2018-09-19T01:44:28.250Z,18.67
2018-09-19T01:45:28.250Z,18.69
2018-09-19T01:46:28.257Z,18.67
2018-09-19T01:47:28.220Z,18.63
2018-09-19T01:48:28.207Z,18.69
2018-09-19T01:49:28.212Z,18.67
2018-09-19T01:50:28.217Z,18.63
2018-09-19T01:51:28.200Z,18.65
2018-09-19T01:52:28.189Z,18.62
2018-09-19T01:53:28.163Z,18.62
2018-09-19T01:54:28.156Z,18.55
2018-09-19T01:55:28.133Z,18.57
2018-09-19T01:56:28.145Z,18.57
2018-09-19T01:57:28.111Z,18.48
2018-09-19T01:58:28.105Z,18.52
2018-09-19T01:59:28.092Z,18.55
2018-09-19T02:00:28.079Z,18.45
2018-09-19T02:01:28.084Z,18.47
2018-09-19T02:02:28.089Z,18.44
2018-09-19T02:03:28.049Z,18.45
2018-09-19T02:04:28.049Z,18.44
2018-09-19T02:05:28.025Z,18.41
2018-09-19T02:06:28.030Z,18.41
2018-09-19T02:07:28.005Z,18.44
2018-09-19T02:08:27.989Z,18.44
2018-09-19T02:09:27.986Z,18.39
2018-09-19T02:10:27.965Z,18.37
2018-09-19T02:11:27.980Z,18.45
2018-09-19T02:12:27.947Z,18.39
2018-09-19T02:13:27.942Z,18.41
2018-09-19T02:14:27.950Z,18.39
2018-09-19T02:15:27.917Z,18.35
2018-09-19T02:16:27.908Z,18.35
2018-09-19T02:17:27.935Z,18.37
2018-09-19T02:18:27.887Z,18.36
2018-09-19T02:19:27.891Z,18.23
2018-09-19T02:20:27.865Z,18.33
2018-09-19T02:21:27.861Z,18.30
2018-09-19T02:22:27.852Z,18.25
2018-09-19T02:23:27.838Z,18.29
2018-09-19T02:24:27.825Z,18.36
2018-09-19T02:25:27.817Z,18.27
2018-09-19T02:26:27.801Z,18.29
2018-09-19T02:27:27.796Z,18.29
2018-09-19T02:28:27.816Z,18.42
2018-09-19T02:29:27.760Z,18.33
2018-09-19T02:30:27.753Z,18.30
2018-09-19T02:31:27.749Z,18.32
2018-09-19T02:32:27.736Z,18.27
2018-09-19T02:33:27.733Z,18.29
2018-09-19T02:34:27.708Z,18.29
2018-09-19T02:35:27.718Z,18.23
2018-09-19T02:36:27.699Z,18.25
2018-09-19T02:37:27.708Z,18.18
2018-09-19T02:38:27.669Z,18.11
2018-09-19T02:39:27.648Z,18.14
2018-09-19T02:40:27.648Z,18.14
2018-09-19T02:41:27.629Z,17.97
2018-09-19T02:42:27.634Z,18.03
2018-09-19T02:43:27.620Z,17.97
2018-09-19T02:44:27.605Z,17.95
2018-09-19T02:45:27.601Z,17.96
2018-09-19T02:46:27.584Z,18.00
2018-09-19T02:47:27.615Z,17.92
2018-09-19T02:48:27.554Z,17.99
2018-09-19T02:49:27.546Z,17.93
2018-09-19T02:50:27.565Z,17.95
2018-09-19T02:51:27.541Z,17.92
2018-09-19T02:52:27.518Z,17.96
2018-09-19T02:53:27.515Z,17.96
2018-09-19T02:54:27.493Z,17.97
2018-09-19T02:55:27.485Z,17.90
2018-09-19T02:56:27.473Z,17.95
2018-09-19T02:57:27.471Z,17.96
2018-09-19T02:58:27.469Z,17.95
2018-09-19T02:59:27.457Z,17.93
2018-09-19T03:00:27.464Z,17.84
2018-09-19T03:01:27.427Z,17.92
2018-09-19T03:02:27.416Z,17.81
2018-09-19T03:03:27.408Z,17.82
2018-09-19T03:04:27.385Z,17.77
2018-09-19T03:05:27.389Z,17.75
2018-09-19T03:06:27.373Z,17.82
2018-09-19T03:07:27.357Z,17.81
2018-09-19T03:08:27.384Z,17.81
2018-09-19T03:09:27.349Z,17.78
2018-09-19T03:10:27.320Z,17.82
2018-09-19T03:11:27.318Z,17.75
2018-09-19T03:12:27.308Z,17.77
2018-09-19T03:13:27.309Z,17.79
2018-09-19T03:14:27.284Z,17.75
2018-09-19T03:15:27.299Z,17.72
2018-09-19T03:16:27.259Z,17.75
2018-09-19T03:17:27.339Z,17.71
2018-09-19T03:18:27.235Z,17.72
2018-09-19T03:19:27.215Z,17.62
2018-09-19T03:20:27.224Z,17.68
2018-09-19T03:21:27.209Z,17.62
2018-09-19T03:22:27.199Z,17.59
2018-09-19T03:23:27.223Z,17.59
2018-09-19T03:24:27.217Z,17.63
2018-09-19T03:25:27.155Z,17.59
2018-09-19T03:26:27.161Z,17.63
2018-09-19T03:27:27.176Z,17.62
2018-09-19T03:28:27.144Z,17.54
2018-09-19T03:29:27.126Z,17.49
2018-09-19T03:30:27.131Z,17.38
2018-09-19T03:31:27.108Z,17.56
2018-09-19T03:32:27.092Z,17.56
2018-09-19T03:33:27.087Z,17.46
2018-09-19T03:34:27.063Z,17.56
2018-09-19T03:35:27.129Z,17.54
2018-09-19T03:36:27.073Z,17.48
2018-09-19T03:37:27.032Z,17.37
2018-09-19T03:38:27.037Z,17.43
2018-09-19T03:39:27.019Z,17.38
2018-09-19T03:40:27.000Z,17.37
2018-09-19T03:41:26.988Z,17.41
2018-09-19T03:42:26.997Z,17.41
2018-09-19T03:43:26.967Z,17.31
2018-09-19T03:44:26.950Z,17.33
2018-09-19T03:45:26.957Z,17.36
2018-09-19T03:46:26.946Z,17.34
2018-09-19T03:47:26.923Z,17.36
2018-09-19T03:48:26.922Z,17.34
2018-09-19T03:49:26.905Z,17.30
2018-09-19T03:50:26.939Z,17.25
2018-09-19T03:51:26.871Z,17.26
2018-09-19T03:52:26.883Z,17.33
2018-09-19T03:53:26.856Z,17.31
2018-09-19T03:54:26.847Z,17.34
2018-09-19T03:55:26.831Z,17.22
2018-09-19T03:56:26.879Z,17.28
2018-09-19T03:57:26.855Z,17.30
2018-09-19T03:58:26.809Z,17.28
2018-09-19T03:59:26.809Z,17.23
2018-09-19T04:00:26.783Z,17.25
2018-09-19T04:01:26.774Z,17.23
2018-09-19T04:02:26.776Z,17.22
2018-09-19T04:03:26.750Z,17.23
2018-09-19T04:04:26.738Z,17.26
2018-09-19T04:05:26.731Z,17.11
2018-09-19T04:06:26.714Z,17.07
2018-09-19T04:07:26.724Z,17.07
2018-09-19T04:08:26.697Z,17.12
2018-09-19T04:09:26.729Z,17.21
2018-09-19T04:10:26.672Z,17.15
2018-09-19T04:11:26.666Z,17.19
2018-09-19T04:12:26.698Z,17.19
2018-09-19T04:13:26.641Z,17.21
2018-09-19T04:14:26.633Z,17.16
2018-09-19T04:15:26.616Z,17.04
2018-09-19T04:16:26.634Z,17.08
2018-09-19T04:17:26.610Z,17.08
2018-09-19T04:18:26.589Z,17.11
2018-09-19T04:19:26.581Z,17.08
2018-09-19T04:20:26.570Z,17.06
2018-09-19T04:21:26.576Z,17.08
2018-09-19T04:22:26.568Z,17.06
2018-09-19T04:23:26.538Z,16.98
2018-09-19T04:24:26.546Z,16.97
2018-09-19T04:25:26.516Z,16.94
2018-09-19T04:26:26.516Z,16.94
2018-09-19T04:27:26.486Z,16.91
2018-09-19T04:28:26.481Z,16.94
2018-09-19T04:29:26.485Z,16.93
2018-09-19T04:30:26.463Z,16.94
2018-09-19T04:31:26.452Z,16.94
2018-09-19T04:32:26.599Z,16.96
2018-09-19T04:33:26.453Z,16.97
2018-09-19T04:34:26.503Z,16.94
2018-09-19T04:35:26.399Z,16.93
2018-09-19T04:36:26.389Z,17.00
2018-09-19T04:37:26.376Z,16.96
2018-09-19T04:38:26.365Z,16.94
2018-09-19T04:39:26.366Z,16.96
2018-09-19T04:40:26.361Z,16.97
2018-09-19T04:41:26.334Z,17.00
2018-09-19T04:42:26.325Z,16.93
2018-09-19T04:43:26.316Z,16.94
2018-09-19T04:44:26.308Z,16.91
2018-09-19T04:45:26.368Z,16.97
2018-09-19T04:46:26.288Z,16.97
2018-09-19T04:47:26.266Z,16.97
2018-09-19T04:48:26.259Z,16.93
2018-09-19T04:49:26.244Z,16.97
2018-09-19T04:50:26.244Z,16.88
2018-09-19T04:51:26.287Z,16.86
2018-09-19T04:52:26.221Z,16.94
2018-09-19T04:53:26.206Z,16.93
2018-09-19T04:54:26.199Z,16.94
2018-09-19T04:55:26.212Z,16.97
2018-09-19T04:56:26.184Z,16.97
2018-09-19T04:57:26.173Z,16.91
2018-09-19T04:58:26.150Z,16.89
2018-09-19T04:59:26.131Z,16.96
2018-09-19T05:00:26.150Z,16.83
2018-09-19T05:01:26.111Z,16.88
2018-09-19T05:02:26.121Z,16.83
2018-09-19T05:03:26.108Z,16.91
2018-09-19T05:04:26.080Z,16.81
2018-09-19T05:05:26.082Z,16.83
2018-09-19T05:06:26.059Z,16.83
2018-09-19T05:07:26.113Z,16.86
2018-09-19T05:08:26.080Z,16.79
2018-09-19T05:09:26.029Z,16.85
2018-09-19T05:10:26.005Z,16.82
2018-09-19T05:11:26.072Z,16.83
2018-09-19T05:12:25.997Z,16.83
2018-09-19T05:13:25.990Z,16.82
2018-09-19T05:14:25.961Z,16.86
2018-09-19T05:15:25.958Z,16.89
2018-09-19T05:16:25.966Z,16.86
2018-09-19T05:17:25.931Z,16.85
2018-09-19T05:18:25.936Z,16.85
2018-09-19T05:19:25.919Z,16.86
2018-09-19T05:20:25.900Z,16.75
2018-09-19T05:21:25.907Z,16.73
2018-09-19T05:22:25.910Z,16.75
2018-09-19T05:23:25.877Z,16.76
2018-09-19T05:24:25.859Z,16.73
2018-09-19T05:25:25.849Z,16.75
2018-09-19T05:26:25.849Z,16.75
2018-09-19T05:27:25.831Z,16.75
2018-09-19T05:28:25.825Z,16.73
2018-09-19T05:29:25.803Z,16.60
2018-09-19T05:30:25.792Z,16.70
2018-09-19T05:31:25.772Z,16.66
2018-09-19T05:32:25.774Z,16.61
2018-09-19T05:33:25.767Z,16.66
2018-09-19T05:34:25.737Z,16.58
2018-09-19T05:35:25.735Z,16.66
2018-09-19T05:36:25.719Z,16.60
2018-09-19T05:37:25.708Z,16.63
2018-09-19T05:38:25.703Z,16.56
2018-09-19T05:39:25.698Z,16.60
2018-09-19T05:40:25.674Z,16.66
2018-09-19T05:41:25.663Z,16.58
2018-09-19T05:42:25.660Z,16.66
2018-09-19T05:43:25.646Z,16.64
2018-09-19T05:44:25.638Z,16.70
2018-09-19T05:45:25.630Z,16.73
2018-09-19T05:46:25.641Z,16.85
2018-09-19T05:47:25.613Z,16.82
2018-09-19T05:48:25.590Z,16.93
2018-09-19T05:49:25.577Z,16.94
2018-09-19T05:50:25.585Z,17.00
2018-09-19T05:51:25.546Z,17.04
2018-09-19T05:52:25.593Z,17.11
2018-09-19T05:53:25.530Z,17.08
2018-09-19T05:54:25.604Z,17.01
2018-09-19T05:55:25.519Z,17.01
2018-09-19T05:56:25.514Z,17.07
2018-09-19T05:57:25.487Z,17.00
2018-09-19T05:58:25.492Z,17.04
2018-09-19T05:59:25.457Z,16.98
2018-09-19T06:00:25.450Z,16.98
2018-09-19T06:01:25.442Z,16.96
2018-09-19T06:02:25.445Z,16.96
2018-09-19T06:03:25.416Z,17.00
2018-09-19T06:04:25.415Z,16.98
2018-09-19T06:05:25.395Z,16.98
2018-09-19T06:06:25.388Z,17.03
2018-09-19T06:07:25.418Z,17.06
2018-09-19T06:08:25.397Z,17.11
2018-09-19T06:09:25.352Z,16.98
2018-09-19T06:10:25.345Z,17.15
2018-09-19T06:11:25.324Z,17.14
2018-09-19T06:12:25.317Z,17.19
2018-09-19T06:13:25.309Z,17.28
2018-09-19T06:14:25.305Z,17.26
2018-09-19T06:15:25.290Z,17.43
2018-09-19T06:16:25.276Z,17.58
2018-09-19T06:17:25.276Z,17.71
2018-09-19T06:18:25.248Z,17.79
2018-09-19T06:19:25.270Z,17.82
2018-09-19T06:20:25.245Z,17.95
2018-09-19T06:21:25.225Z,18.03
2018-09-19T06:22:25.230Z,18.18
2018-09-19T06:23:25.196Z,18.18
2018-09-19T06:24:25.194Z,18.25
2018-09-19T06:25:25.190Z,18.35
2018-09-19T06:26:25.168Z,18.47
2018-09-19T06:27:25.161Z,18.47
2018-09-19T06:28:25.143Z,18.57
2018-09-19T06:29:25.137Z,18.54
2018-09-19T06:30:25.150Z,18.67
2018-09-19T06:31:25.106Z,18.78
2018-09-19T06:32:25.102Z,18.85
2018-09-19T06:33:25.107Z,18.92
2018-09-19T06:34:25.088Z,18.99
2018-09-19T06:35:25.070Z,19.11
2018-09-19T06:36:25.065Z,19.10
2018-09-19T06:37:25.043Z,19.14
2018-09-19T06:38:25.051Z,19.10
2018-09-19T06:39:25.027Z,19.07
2018-09-19T06:40:25.070Z,19.04
2018-09-19T06:41:25.005Z,18.99
2018-09-19T06:42:24.995Z,19.06
2018-09-19T06:43:24.998Z,18.99
2018-09-19T06:44:24.970Z,18.98
2018-09-19T06:45:25.008Z,19.07
2018-09-19T06:46:24.954Z,19.07
2018-09-19T06:47:24.940Z,19.07
2018-09-19T06:48:24.929Z,19.22
2018-09-19T06:49:24.926Z,19.25
2018-09-19T06:50:24.905Z,19.36
2018-09-19T06:51:24.901Z,19.40
2018-09-19T06:52:24.910Z,19.50
2018-09-19T06:53:24.881Z,19.65
2018-09-19T06:54:24.881Z,19.73
2018-09-19T06:55:24.846Z,19.78
2018-09-19T06:56:24.840Z,19.87
2018-09-19T06:57:24.826Z,19.95
2018-09-19T06:58:24.813Z,19.98
2018-09-19T06:59:24.823Z,19.96
2018-09-19T07:00:24.818Z,20.08
2018-09-19T07:01:24.787Z,20.18
2018-09-19T07:02:24.788Z,20.32
2018-09-19T07:03:24.760Z,20.31
2018-09-19T07:04:24.750Z,20.35
2018-09-19T07:05:24.744Z,20.35
2018-09-19T07:06:24.781Z,20.55
2018-09-19T07:07:24.717Z,20.58
2018-09-19T07:08:24.709Z,20.50
2018-09-19T07:09:24.700Z,20.62
2018-09-19T07:10:24.700Z,20.79
2018-09-19T07:11:24.683Z,20.80
2018-09-19T07:12:24.680Z,20.89
2018-09-19T07:13:24.657Z,21.06
2018-09-19T07:14:24.652Z,21.13
2018-09-19T07:15:24.632Z,21.19
2018-09-19T07:16:24.649Z,21.27
2018-09-19T07:17:24.624Z,21.28
2018-09-19T07:18:24.598Z,21.28
2018-09-19T07:19:24.622Z,21.31
2018-09-19T07:20:24.604Z,21.22
2018-09-19T07:21:24.570Z,21.32
2018-09-19T07:22:24.578Z,21.42
2018-09-19T07:23:24.556Z,21.53
2018-09-19T07:24:24.556Z,21.62
2018-09-19T07:25:24.541Z,21.80
2018-09-19T07:26:24.527Z,21.80
2018-09-19T07:27:24.509Z,21.90
2018-09-19T07:28:24.496Z,21.86
2018-09-19T07:29:24.498Z,21.91
2018-09-19T07:30:24.485Z,21.82
2018-09-19T07:31:24.470Z,21.82
2018-09-19T07:32:24.456Z,21.96
2018-09-19T07:33:24.445Z,21.96
2018-09-19T07:34:24.442Z,22.05
2018-09-19T07:35:24.427Z,21.92
2018-09-19T07:36:24.409Z,21.86
2018-09-19T07:37:24.402Z,21.88
2018-09-19T07:38:24.396Z,21.94
2018-09-19T07:39:24.401Z,21.86
2018-09-19T07:40:24.448Z,22.02
2018-09-19T07:41:24.356Z,22.09
2018-09-19T07:42:24.344Z,22.18
2018-09-19T07:43:24.339Z,22.28
2018-09-19T07:44:24.346Z,22.33
2018-09-19T07:45:24.331Z,22.37
2018-09-19T07:46:24.341Z,22.57
2018-09-19T07:47:24.289Z,22.54
2018-09-19T07:48:24.287Z,22.72
2018-09-19T07:49:24.269Z,22.79
2018-09-19T07:50:24.256Z,22.85
2018-09-19T07:51:24.253Z,22.85
2018-09-19T07:52:24.265Z,22.83
2018-09-19T07:53:24.239Z,22.90
2018-09-19T07:54:24.229Z,22.82
2018-09-19T07:55:24.240Z,23.07
2018-09-19T07:56:24.208Z,23.22
2018-09-19T07:57:24.191Z,23.35
2018-09-19T07:58:24.183Z,23.50
2018-09-19T07:59:24.171Z,23.83
2018-09-19T08:00:24.201Z,23.90
2018-09-19T08:01:24.141Z,24.25
2018-09-19T08:02:24.153Z,24.47
2018-09-19T08:03:24.126Z,24.67
2018-09-19T08:04:24.138Z,24.99
2018-09-19T08:05:24.119Z,25.17
2018-09-19T08:06:24.096Z,25.39
2018-09-19T08:07:24.088Z,25.47
2018-09-19T08:08:24.067Z,25.39
2018-09-19T08:09:24.060Z,25.42
2018-09-19T08:10:24.070Z,25.51
2018-09-19T08:11:24.034Z,25.36
2018-09-19T08:12:24.026Z,25.46
2018-09-19T08:13:24.023Z,25.43
2018-09-19T08:14:24.001Z,25.32
2018-09-19T08:15:24.000Z,25.23
2018-09-19T08:16:23.998Z,25.30
2018-09-19T08:17:23.977Z,25.23
2018-09-19T08:18:23.970Z,25.35
2018-09-19T08:19:23.969Z,25.58
2018-09-19T08:20:23.943Z,25.45
2018-09-19T08:21:23.951Z,25.55
2018-09-19T08:22:23.936Z,25.65
2018-09-19T08:23:23.924Z,25.83
2018-09-19T08:24:23.949Z,25.99
2018-09-19T08:25:23.890Z,26.15
2018-09-19T08:26:23.875Z,26.32
2018-09-19T08:27:23.889Z,26.47
2018-09-19T08:28:23.865Z,26.55
2018-09-19T08:29:23.850Z,26.63
2018-09-19T08:30:23.841Z,26.55
2018-09-19T08:31:23.833Z,26.60
2018-09-19T08:32:23.816Z,26.66
2018-09-19T08:33:23.813Z,26.72
2018-09-19T08:34:23.797Z,26.84
2018-09-19T08:35:23.788Z,27.07
2018-09-19T08:36:23.782Z,27.06
2018-09-19T08:37:23.771Z,27.07
2018-09-19T08:38:23.784Z,27.14
2018-09-19T08:39:23.746Z,27.29
2018-09-19T08:40:23.729Z,27.31
2018-09-19T08:41:23.731Z,27.22
2018-09-19T08:42:23.718Z,27.10
2018-09-19T08:43:23.712Z,27.00
2018-09-19T08:44:23.699Z,27.10
2018-09-19T08:45:23.676Z,27.13
2018-09-19T08:46:23.670Z,27.19
2018-09-19T08:47:23.662Z,27.18
2018-09-19T08:48:23.675Z,27.24
2018-09-19T08:49:23.661Z,27.28
2018-09-19T08:50:23.638Z,27.41
2018-09-19T08:51:23.617Z,27.51
2018-09-19T08:52:23.601Z,27.70
2018-09-19T08:53:23.590Z,27.67
2018-09-19T08:54:23.591Z,27.55
2018-09-19T08:55:23.727Z,27.69
2018-09-19T08:56:23.567Z,27.77
2018-09-19T08:57:23.554Z,28.00
2018-09-19T08:58:23.554Z,27.94
2018-09-19T08:59:23.562Z,28.03
2018-09-19T09:00:23.530Z,28.09
2018-09-19T09:01:23.553Z,28.15
2018-09-19T09:02:23.535Z,28.25
2018-09-19T09:03:23.485Z,28.43
2018-09-19T09:04:23.481Z,28.51
2018-09-19T09:05:23.512Z,28.70
2018-09-19T09:06:23.460Z,28.76
2018-09-19T09:07:23.460Z,28.88
2018-09-19T09:08:23.444Z,28.77
2018-09-19T09:09:23.426Z,28.76
2018-09-19T09:10:23.417Z,28.73
2018-09-19T09:11:23.425Z,28.67
2018-09-19T09:12:23.401Z,28.74
2018-09-19T09:13:23.397Z,28.73
2018-09-19T09:14:23.387Z,28.73
2018-09-19T09:15:23.360Z,28.76
2018-09-19T09:16:23.362Z,28.76
2018-09-19T09:17:23.335Z,28.88
2018-09-19T09:18:23.340Z,28.90
2018-09-19T09:19:23.338Z,28.88
2018-09-19T09:20:23.331Z,29.02
2018-09-19T09:21:23.303Z,28.93
2018-09-19T09:22:23.307Z,28.85
2018-09-19T09:23:23.283Z,28.89
2018-09-19T09:24:23.278Z,29.00
2018-09-19T09:25:23.268Z,29.19
2018-09-19T09:26:23.246Z,29.34
2018-09-19T09:27:23.315Z,29.31
2018-09-19T09:28:23.237Z,29.28
2018-09-19T09:29:23.218Z,29.19
2018-09-19T09:30:23.221Z,29.36
2018-09-19T09:31:23.202Z,29.43
2018-09-19T09:32:23.183Z,29.48
2018-09-19T09:33:23.173Z,29.46
2018-09-19T09:34:23.227Z,29.52
2018-09-19T09:35:23.147Z,29.73
2018-09-19T09:36:23.143Z,29.65
2018-09-19T09:37:23.120Z,29.80
2018-09-19T09:38:23.127Z,29.83
2018-09-19T09:39:23.116Z,30.05
2018-09-19T09:40:23.157Z,30.04
2018-09-19T09:41:23.100Z,30.16
2018-09-19T09:42:23.088Z,30.31
2018-09-19T09:43:23.102Z,30.27
2018-09-19T09:44:23.052Z,30.43
2018-09-19T09:45:23.053Z,30.38
2018-09-19T09:46:23.038Z,30.34
2018-09-19T09:47:23.039Z,30.60
2018-09-19T09:48:23.027Z,30.77
2018-09-19T09:49:22.998Z,30.76
2018-09-19T09:50:23.013Z,30.61
2018-09-19T09:51:23.002Z,30.80
2018-09-19T09:52:22.976Z,30.75
2018-09-19T09:53:22.993Z,30.67
2018-09-19T09:54:22.971Z,30.65
2018-09-19T09:55:22.939Z,30.77
2018-09-19T09:56:22.928Z,30.94
2018-09-19T09:57:22.935Z,30.86
2018-09-19T09:58:22.903Z,30.80
2018-09-19T09:59:22.917Z,31.13
2018-09-19T10:00:22.888Z,30.98
2018-09-19T10:01:22.871Z,30.95
2018-09-19T10:02:22.861Z,30.88
2018-09-19T10:03:22.867Z,31.04
2018-09-19T10:04:22.847Z,31.14
2018-09-19T10:05:22.853Z,31.34
2018-09-19T10:06:22.857Z,31.16
2018-09-19T10:07:22.809Z,31.32
2018-09-19T10:08:22.801Z,31.39
2018-09-19T10:09:22.799Z,31.25
2018-09-19T10:10:22.799Z,31.10
2018-09-19T10:11:22.810Z,30.89
2018-09-19T10:12:22.763Z,30.45
2018-09-19T10:13:22.759Z,30.27
2018-09-19T10:14:22.765Z,29.82
2018-09-19T10:15:22.739Z,29.71
2018-09-19T10:16:22.714Z,29.90
2018-09-19T10:17:22.708Z,30.00
2018-09-19T10:18:22.699Z,29.89
2018-09-19T10:19:22.693Z,29.82
2018-09-19T10:20:22.708Z,29.82
2018-09-19T10:21:22.661Z,29.71
2018-09-19T10:22:22.667Z,29.87
2018-09-19T10:23:22.642Z,30.34
2018-09-19T10:24:22.645Z,30.60
2018-09-19T10:25:22.644Z,30.46
2018-09-19T10:26:22.632Z,29.90
2018-09-19T10:27:22.599Z,29.28
2018-09-19T10:28:22.612Z,29.24
2018-09-19T10:29:22.577Z,29.33
2018-09-19T10:30:22.604Z,29.53
2018-09-19T10:31:22.586Z,29.67
2018-09-19T10:32:22.551Z,29.83
2018-09-19T10:33:22.532Z,29.71
2018-09-19T10:34:22.525Z,29.70
2018-09-19T10:35:22.542Z,30.02
2018-09-19T10:36:22.526Z,30.11
2018-09-19T10:37:22.502Z,30.29
2018-09-19T10:38:22.495Z,30.39
2018-09-19T10:39:22.482Z,30.45
2018-09-19T10:40:22.460Z,30.77
2018-09-19T10:41:22.462Z,30.83
2018-09-19T10:42:22.444Z,31.04
2018-09-19T10:43:22.441Z,30.92
2018-09-19T10:44:22.434Z,30.76
2018-09-19T10:45:22.440Z,30.65
2018-09-19T10:46:22.415Z,30.47
2018-09-19T10:47:22.409Z,30.00
2018-09-19T10:48:22.379Z,29.82
2018-09-19T10:49:22.444Z,29.79
2018-09-19T10:50:22.361Z,29.74
2018-09-19T10:51:22.365Z,29.74
2018-09-19T10:52:22.335Z,29.63
2018-09-19T10:53:22.330Z,29.63
2018-09-19T10:54:22.324Z,29.63
2018-09-19T10:55:22.318Z,29.61
2018-09-19T10:56:22.310Z,29.61
2018-09-19T10:57:22.311Z,29.64
2018-09-19T10:58:22.282Z,29.57
2018-09-19T10:59:22.268Z,29.53
2018-09-19T11:00:22.260Z,29.51
2018-09-19T11:01:22.240Z,29.42
2018-09-19T11:02:22.249Z,29.36
2018-09-19T11:03:22.250Z,29.14
2018-09-19T11:04:22.225Z,29.04
2018-09-19T11:05:22.200Z,29.15
2018-09-19T11:06:22.207Z,29.16
2018-09-19T11:07:22.187Z,29.16
2018-09-19T11:08:22.192Z,29.11
2018-09-19T11:09:22.175Z,29.00
2018-09-19T11:10:22.147Z,29.00
2018-09-19T11:11:22.138Z,29.19
2018-09-19T11:12:22.120Z,29.21
2018-09-19T11:13:22.113Z,29.19
2018-09-19T11:14:22.116Z,29.12
2018-09-19T11:15:22.093Z,29.16
2018-09-19T11:16:22.123Z,29.27
2018-09-19T11:17:22.079Z,29.39
2018-09-19T11:18:22.069Z,29.31
2018-09-19T11:19:22.068Z,29.39
2018-09-19T11:20:22.037Z,29.57
2018-09-19T11:21:22.032Z,29.63
2018-09-19T11:22:33.167Z,29.57
2018-09-19T11:23:22.015Z,29.48
2018-09-19T11:24:22.004Z,29.39
2018-09-19T11:25:21.998Z,29.36
2018-09-19T11:26:22.057Z,29.39
2018-09-19T11:27:21.978Z,29.39
2018-09-19T11:28:21.952Z,29.42
2018-09-19T11:29:21.937Z,29.49
2018-09-19T11:30:21.926Z,29.57
2018-09-19T11:31:21.915Z,29.55
2018-09-19T11:32:21.930Z,29.33
2018-09-19T11:33:21.897Z,29.23
2018-09-19T11:34:21.890Z,29.24
2018-09-19T11:35:21.876Z,29.34
2018-09-19T11:36:21.888Z,29.37
2018-09-19T11:37:21.857Z,29.43
2018-09-19T11:38:21.850Z,29.39
2018-09-19T11:39:21.840Z,29.57
2018-09-19T11:40:21.828Z,29.51
2018-09-19T11:41:21.820Z,29.57
2018-09-19T11:42:21.823Z,29.57
2018-09-19T11:43:21.845Z,29.55
2018-09-19T11:44:21.790Z,29.58
2018-09-19T11:45:21.796Z,29.53
2018-09-19T11:46:21.767Z,29.58
2018-09-19T11:47:21.772Z,29.63
2018-09-19T11:48:21.758Z,29.55
2018-09-19T11:49:21.837Z,29.63
2018-09-19T11:50:21.729Z,29.51
2018-09-19T11:51:21.714Z,29.52
2018-09-19T11:52:21.698Z,29.55
2018-09-19T11:53:21.703Z,29.53
2018-09-19T11:54:21.672Z,29.57
2018-09-19T11:55:21.662Z,29.43
2018-09-19T11:56:21.654Z,29.37
2018-09-19T11:57:21.647Z,29.55
2018-09-19T11:58:21.650Z,29.52
2018-09-19T11:59:21.628Z,29.63
2018-09-19T12:00:21.646Z,29.63
2018-09-19T12:01:21.618Z,29.57
2018-09-19T12:02:21.587Z,29.53
2018-09-19T12:03:21.604Z,29.53
2018-09-19T12:04:21.568Z,29.49
2018-09-19T12:05:21.560Z,29.61
2018-09-19T12:06:21.591Z,29.60
2018-09-19T12:07:21.600Z,29.52
2018-09-19T12:08:21.524Z,29.43
2018-09-19T12:09:21.532Z,29.55
2018-09-19T12:10:21.508Z,29.53
2018-09-19T12:11:21.504Z,29.55
2018-09-19T12:12:21.484Z,29.65
2018-09-19T12:13:21.490Z,29.63
2018-09-19T12:14:21.456Z,29.76
2018-09-19T12:15:21.461Z,29.80
2018-09-19T12:16:21.437Z,29.85
2018-09-19T12:17:21.439Z,29.79
2018-09-19T12:18:21.422Z,29.70
2018-09-19T12:19:21.436Z,29.74
2018-09-19T12:20:21.402Z,29.67
2018-09-19T12:21:21.400Z,29.57
2018-09-19T12:22:21.372Z,29.42
2018-09-19T12:23:21.398Z,29.45
2018-09-19T12:24:21.379Z,29.52
2018-09-19T12:25:21.344Z,29.49
2018-09-19T12:26:21.423Z,29.46
2018-09-19T12:27:21.332Z,29.41
2018-09-19T12:28:21.311Z,29.41
2018-09-19T12:29:21.302Z,29.45
2018-09-19T12:30:21.294Z,29.39
2018-09-19T12:31:21.298Z,29.52
2018-09-19T12:32:21.286Z,29.58
2018-09-19T12:33:21.293Z,29.68
2018-09-19T12:34:21.242Z,29.60
2018-09-19T12:35:21.233Z,29.60
2018-09-19T12:36:21.240Z,29.57
2018-09-19T12:37:21.222Z,29.46
2018-09-19T12:38:21.220Z,29.41
2018-09-19T12:39:21.194Z,29.36
2018-09-19T12:40:21.185Z,29.34
2018-09-19T12:41:21.175Z,29.37
2018-09-19T12:42:21.167Z,29.39
2018-09-19T12:43:21.180Z,29.31
2018-09-19T12:44:21.193Z,29.19
2018-09-19T12:45:21.132Z,29.16
2018-09-19T12:46:21.118Z,29.05
2018-09-19T12:47:21.126Z,28.93
2018-09-19T12:48:21.105Z,28.92
2018-09-19T12:49:21.109Z,28.90
2018-09-19T12:50:21.077Z,29.11
2018-09-19T12:51:21.067Z,29.12
2018-09-19T12:52:21.061Z,29.19